Time;durP1;ratioP1;P1;durP2;ratioP2;P2;SDS_P1;SDS_P2;PMS_P1;PMS_P2;Temp;Humidity;BMP_temperature;BMP_pressure;BME280_temperature;BME280_humidity;BME280_pressure;Samples;Min_cycle;Max_cycle;Signal;HPM_P1;HPM_P2
2024/02/11 00:02:53;;;;;;;;;47.00;38.00;;;;;13.67;100.00;96680.94;6256924;27;96651;-57
2024/02/11 00:05:56;;;;;;;;;46.40;38.40;;;;;13.60;100.00;96675.09;6217005;28;96478;-57
2024/02/11 00:08:59;;;;;;;;;47.00;38.00;;;;;13.62;100.00;96672.09;6234537;28;96410;-57
2024/02/11 00:12:04;;;;;;;;;41.20;36.00;;;;;13.57;100.00;96667.56;6233732;27;96414;-57
2024/02/11 00:15:10;;;;;;;;;43.50;37.00;;;;;13.64;100.00;96659.84;6240474;27;96891;-56
2024/02/11 00:18:13;;;;;;;;;42.67;35.33;;;;;13.53;100.00;96638.69;6233929;28;96542;-56
2024/02/11 00:21:16;;;;;;;;;43.20;36.00;;;;;13.59;100.00;96662.66;6233655;28;97050;-56
2024/02/11 00:24:23;;;;;;;;;42.20;35.40;;;;;13.55;100.00;96658.13;6234698;27;96433;-56
2024/02/11 00:27:26;;;;;;;;;41.40;35.00;;;;;13.52;100.00;96658.72;6233706;28;96860;-55
2024/02/11 00:30:31;;;;;;;;;45.00;38.00;;;;;13.31;100.00;96663.63;6231905;27;97062;-55
2024/02/11 00:33:34;;;;;;;;;45.00;35.00;;;;;13.25;100.00;96662.88;6220226;28;96563;-55
2024/02/11 00:36:40;;;;;;;;;45.00;35.50;;;;;13.30;100.00;96662.81;6231445;27;96940;-56
2024/02/11 00:39:44;;;;;;;;;40.80;35.60;;;;;13.27;100.00;96660.72;6233925;28;96484;-56
2024/02/11 00:42:48;;;;;;;;;45.00;35.00;;;;;13.23;100.00;96648.06;6236543;27;96361;-56
2024/02/11 00:45:52;;;;;;;;;40.50;34.00;;;;;13.15;100.00;96641.38;6237492;27;96392;-55
2024/02/11 00:48:55;;;;;;;;;44.00;35.00;;;;;13.25;100.00;96652.06;6237781;27;96394;-55
2024/02/11 00:51:59;;;;;;;;;46.25;38.00;;;;;13.18;100.00;96643.53;6237574;28;96483;-56
2024/02/11 00:55:02;;;;;;;;;42.50;35.00;;;;;13.12;100.00;96644.69;6235128;28;96473;-56
2024/02/11 00:58:05;;;;;;;;;45.40;35.00;;;;;12.86;100.00;96630.69;6229606;27;96886;-55
2024/02/11 01:01:10;;;;;;;;;46.00;37.00;;;;;12.92;100.00;96647.63;6234307;28;97054;-55
2024/02/11 01:04:14;;;;;;;;;45.00;35.00;;;;;12.82;100.00;96651.28;6238870;27;96485;-56
2024/02/11 01:07:17;;;;;;;;;40.40;33.00;;;;;12.88;100.00;96650.13;6236548;27;97046;-56
2024/02/11 01:10:21;;;;;;;;;42.25;35.00;;;;;12.79;100.00;96646.47;6230325;27;97522;-56
2024/02/11 01:13:25;;;;;;;;;43.20;34.80;;;;;12.82;100.00;96648.56;6234098;27;97506;-55
2024/02/11 01:16:30;;;;;;;;;41.80;34.00;;;;;12.86;100.00;96643.38;6237836;27;96375;-55
2024/02/11 01:19:33;;;;;;;;;43.00;35.00;;;;;12.84;100.00;96642.88;6233349;27;96380;-55
2024/02/11 01:22:38;;;;;;;;;42.60;35.00;;;;;12.90;100.00;96644.44;6235247;27;97598;-55
2024/02/11 01:25:41;;;;;;;;;40.00;34.00;;;;;13.00;100.00;96644.28;6238707;27;96418;-59
2024/02/11 01:28:45;;;;;;;;;39.00;33.00;;;;;13.07;100.00;96641.22;6229775;27;97133;-59
2024/02/11 01:31:49;;;;;;;;;38.25;33.00;;;;;12.95;100.00;96633.56;6252307;27;96344;-60
2024/02/11 01:34:53;;;;;;;;;36.25;32.00;;;;;13.05;100.00;96622.56;6251574;27;96374;-58
2024/02/11 01:37:56;;;;;;;;;36.00;32.00;;;;;13.12;100.00;96619.53;6228891;28;97053;-59
2024/02/11 01:41:00;;;;;;;;;41.00;32.00;;;;;13.12;100.00;96619.53;6228480;27;96327;-59
2024/02/11 01:44:03;;;;;;;;;32.60;30.00;;;;;13.11;100.00;96617.91;6251209;27;96404;-58
2024/02/11 01:47:08;;;;;;;;;31.67;30.00;;;;;13.07;100.00;96617.69;6248446;27;97725;-60
2024/02/11 01:50:14;;;;;;;;;39.60;30.60;;;;;13.14;100.00;96615.47;6229636;27;96374;-58
2024/02/11 01:53:17;;;;;;;;;33.80;30.00;;;;;13.25;100.00;96614.19;6248318;27;96317;-59
2024/02/11 01:56:23;;;;;;;;;38.00;31.67;;;;;13.35;100.00;96614.03;6249100;27;96477;-58
2024/02/11 01:59:30;;;;;;;;;34.25;30.00;;;;;13.44;100.00;96614.16;6237903;27;97567;-60
2024/02/11 02:02:40;;;;;;;;;37.25;32.25;;;;;13.50;100.00;96612.19;6229259;27;96291;-60
2024/02/11 02:05:44;;;;;;;;;37.40;32.00;;;;;13.57;100.00;96605.31;6195971;28;97655;-58
2024/02/11 02:08:47;;;;;;;;;38.00;33.00;;;;;13.62;100.00;96602.53;6196062;28;96394;-58
2024/02/11 02:11:51;;;;;;;;;41.60;35.00;;;;;13.60;100.00;96607.41;6198920;28;96517;-58
2024/02/11 02:14:55;;;;;;;;;41.60;33.80;;;;;13.66;100.00;96606.22;6207560;28;97138;-58
2024/02/11 02:18:00;;;;;;;;;42.00;35.00;;;;;13.64;100.00;96599.50;6197318;28;96353;-58
2024/02/11 02:21:04;;;;;;;;;38.40;33.00;;;;;13.68;100.00;96601.31;6195493;28;97608;-58
2024/02/11 02:24:09;;;;;;;;;39.60;34.00;;;;;13.71;100.00;96597.22;6195065;28;96373;-58
2024/02/11 02:27:12;;;;;;;;;35.00;31.40;;;;;13.72;100.00;96593.41;6178371;28;97292;-58
2024/02/11 02:30:16;;;;;;;;;41.75;34.25;;;;;13.69;100.00;96596.69;6205407;28;96977;-58
2024/02/11 02:33:19;;;;;;;;;41.00;33.60;;;;;13.61;100.00;96595.50;6196498;28;97118;-58
2024/02/11 02:36:24;;;;;;;;;42.00;34.50;;;;;13.52;100.00;96589.16;6196922;28;96355;-58
2024/02/11 02:39:28;;;;;;;;;42.25;35.00;;;;;13.56;100.00;96592.88;6192227;28;97037;-58
2024/02/11 02:42:31;;;;;;;;;39.75;34.25;;;;;13.53;100.00;96588.06;6183227;28;97771;-55
2024/02/11 02:45:35;;;;;;;;;43.00;35.00;;;;;13.52;100.00;96583.72;6195813;28;96347;-55
2024/02/11 02:48:38;;;;;;;;;43.50;35.50;;;;;13.53;100.00;96587.25;6197722;28;96465;-55
2024/02/11 02:51:41;;;;;;;;;43.20;35.40;;;;;13.58;100.00;96587.16;6196792;28;96519;-56
2024/02/11 02:54:46;;;;;;;;;43.20;34.20;;;;;13.57;100.00;96590.97;6197853;28;97423;-55
2024/02/11 02:57:51;;;;;;;;;39.50;33.50;;;;;13.60;100.00;96584.94;6195676;28;96690;-55
2024/02/11 03:00:54;;;;;;;;;40.00;34.00;;;;;13.63;100.00;96584.38;6197022;28;96403;-55
2024/02/11 03:04:01;;;;;;;;;40.40;33.20;;;;;13.63;100.00;96585.19;6195282;28;97070;-56
2024/02/11 03:07:06;;;;;;;;;42.00;34.00;;;;;13.59;100.00;96581.44;6191503;28;96591;-55
2024/02/11 03:10:20;;;;;;;;;42.00;34.40;;;;;13.45;100.00;96583.31;6185835;28;97954;-55
2024/02/11 03:13:24;;;;;;;;;45.40;35.00;;;;;13.44;100.00;96573.56;6188239;28;96829;-55
2024/02/11 03:16:28;;;;;;;;;42.25;33.00;;;;;13.33;100.00;96564.03;6177445;28;96331;-53
2024/02/11 03:19:32;;;;;;;;;36.20;32.00;;;;;13.38;100.00;96574.78;6185851;28;96667;-53
2024/02/11 03:22:35;;;;;;;;;40.80;33.00;;;;;13.40;100.00;96584.19;6181125;28;96858;-53
2024/02/11 03:25:40;;;;;;;;;40.80;34.80;;;;;13.33;100.00;96578.38;6191188;28;96968;-54
2024/02/11 03:28:44;;;;;;;;;39.00;33.75;;;;;13.20;100.00;96572.88;6186503;28;96413;-53
2024/02/11 03:31:47;;;;;;;;;39.80;33.80;;;;;13.25;100.00;96570.09;6186953;28;96411;-53
2024/02/11 03:34:50;;;;;;;;;41.60;34.20;;;;;13.19;100.00;96574.81;6187037;28;96386;-53
2024/02/11 03:37:53;;;;;;;;;44.60;36.00;;;;;13.20;100.00;96572.88;6186650;28;96495;-52
2024/02/11 03:40:58;;;;;;;;;42.00;34.50;;;;;13.25;100.00;96565.50;6186329;28;97519;-53
2024/02/11 03:44:02;;;;;;;;;39.00;33.00;;;;;13.08;100.00;96575.22;6186345;28;96470;-54
2024/02/11 03:47:05;;;;;;;;;37.60;32.40;;;;;13.13;100.00;96567.84;6186610;28;96577;-52
2024/02/11 03:50:10;;;;;;;;;42.20;35.00;;;;;13.12;100.00;96568.94;6186450;28;96307;-54
2024/02/11 03:53:18;;;;;;;;;37.00;30.00;;;;;13.17;100.00;96565.38;6186607;28;96480;-53
2024/02/11 03:56:26;;;;;;;;;39.75;33.00;;;;;13.22;100.00;96557.16;6188058;28;96728;-53
2024/02/11 03:59:29;;;;;;;;;38.20;32.00;;;;;13.29;100.00;96550.25;6184987;28;96648;-53
2024/02/11 04:02:34;;;;;;;;;36.75;32.00;;;;;13.25;100.00;96548.44;6168862;28;96389;-53
2024/02/11 04:05:39;;;;;;;;;33.40;30.60;;;;;13.29;100.00;96535.97;6197712;28;97063;-53
2024/02/11 04:08:43;;;;;;;;;30.60;29.40;;;;;13.44;100.00;96546.50;6180844;28;97080;-54
2024/02/11 04:11:47;;;;;;;;;34.80;30.20;;;;;13.44;100.00;96547.31;6188284;28;96490;-53
2024/02/11 04:14:52;;;;;;;;;35.00;31.60;;;;;13.42;100.00;96548.72;6180340;28;96366;-53
2024/02/11 04:17:56;;;;;;;;;30.50;28.50;;;;;13.31;100.00;96542.66;6181025;28;96351;-54
2024/02/11 04:21:00;;;;;;;;;33.00;30.00;;;;;13.29;100.00;96535.97;6187637;28;96309;-53
2024/02/11 04:24:05;;;;;;;;;35.80;32.60;;;;;13.30;100.00;96534.84;6190661;28;96697;-55
2024/02/11 04:27:14;;;;;;;;;36.40;30.00;;;;;13.28;100.00;96520.81;6188949;28;96804;-56
2024/02/11 04:30:19;;;;;;;;;36.00;31.00;;;;;13.21;100.00;96521.19;6189244;28;96721;-56
2024/02/11 04:33:22;;;;;;;;;31.60;27.60;;;;;13.24;100.00;96517.09;6190109;28;97188;-56
2024/02/11 04:36:26;;;;;;;;;32.25;30.00;;;;;13.25;100.00;96505.97;6191603;28;96832;-56
2024/02/11 04:39:31;;;;;;;;;32.20;28.60;;;;;13.17;100.00;96514.78;6193758;28;96393;-56
2024/02/11 04:42:41;;;;;;;;;30.60;28.00;;;;;13.06;100.00;96491.66;6189887;28;96599;-56
2024/02/11 04:45:44;;;;;;;;;32.00;29.00;;;;;13.14;100.00;96503.75;6188030;28;96743;-56
2024/02/11 04:48:48;;;;;;;;;32.00;30.00;;;;;13.14;100.00;96504.56;6165908;28;97250;-56
2024/02/11 04:51:52;;;;;;;;;32.80;29.40;;;;;13.15;100.00;96489.09;6193369;28;96426;-56
2024/02/11 04:54:56;;;;;;;;;28.75;26.00;;;;;13.20;100.00;96489.81;6189483;28;97666;-56
2024/02/11 04:58:01;;;;;;;;;29.00;27.00;;;;;13.27;100.00;96490.25;6188478;28;96856;-56
2024/02/11 05:01:05;;;;;;;;;28.00;26.00;;;;;13.29;100.00;96479.91;6187764;28;96454;-56
2024/02/11 05:04:08;;;;;;;;;27.40;26.00;;;;;13.32;100.00;96486.66;6184912;28;97584;-56
2024/02/11 05:07:12;;;;;;;;;29.00;25.20;;;;;13.22;100.00;96484.94;6186749;28;97088;-56
2024/02/11 05:10:16;;;;;;;;;30.00;27.50;;;;;13.14;100.00;96476.69;6189254;28;96435;-56
2024/02/11 05:13:22;;;;;;;;;31.00;28.75;;;;;13.08;100.00;96483.25;6189184;28;97087;-56
2024/02/11 05:16:28;;;;;;;;;27.40;25.60;;;;;13.15;100.00;96473.66;6183130;28;96563;-56
2024/02/11 05:19:32;;;;;;;;;31.00;28.00;;;;;13.18;100.00;96477.69;6193576;28;96893;-56
2024/02/11 05:22:35;;;;;;;;;31.00;28.20;;;;;13.19;100.00;96474.72;6189103;28;96896;-56
2024/02/11 05:25:40;;;;;;;;;30.40;27.00;;;;;13.16;100.00;96475.28;6181237;28;97381;-56
2024/02/11 05:28:46;;;;;;;;;29.20;27.00;;;;;13.20;100.00;96467.38;6183756;28;96280;-56
2024/02/11 05:31:50;;;;;;;;;27.75;27.75;;;;;13.28;100.00;96469.41;6188521;28;96523;-56
2024/02/11 05:34:57;;;;;;;;;29.67;27.67;;;;;13.33;100.00;96466.63;6186407;28;96699;-56
2024/02/11 05:38:01;;;;;;;;;29.40;27.00;;;;;13.33;100.00;96462.00;6164414;28;98594;-56
2024/02/11 05:41:05;;;;;;;;;29.20;26.60;;;;;13.14;100.00;96461.28;6185232;28;96921;-56
2024/02/11 05:44:10;;;;;;;;;30.60;26.60;;;;;13.06;100.00;96464.59;6188291;28;97174;-56
2024/02/11 05:47:14;;;;;;;;;35.40;30.40;;;;;13.06;100.00;96459.19;6187114;28;96393;-56
2024/02/11 05:50:18;;;;;;;;;32.60;29.00;;;;;12.96;100.00;96462.06;6184672;28;97524;-56
2024/02/11 05:53:21;;;;;;;;;31.60;29.40;;;;;12.92;100.00;96453.75;6186874;28;96632;-56
2024/02/11 05:56:25;;;;;;;;;31.50;28.00;;;;;13.05;100.00;96464.91;6187987;28;96289;-56
2024/02/11 05:59:30;;;;;;;;;32.00;30.00;;;;;13.13;100.00;96461.56;6183416;28;96571;-56
2024/02/11 06:02:33;;;;;;;;;32.00;29.00;;;;;13.23;100.00;96478.44;6184347;28;96895;-56
2024/02/11 06:05:36;;;;;;;;;33.40;29.40;;;;;13.26;100.00;96471.59;6184292;28;97633;-56
2024/02/11 06:08:39;;;;;;;;;32.60;29.80;;;;;13.23;100.00;96470.31;6184438;28;96268;-56
2024/02/11 06:11:43;;;;;;;;;29.00;26.60;;;;;13.21;100.00;96466.28;6184770;28;96402;-56
2024/02/11 06:14:47;;;;;;;;;31.00;30.00;;;;;13.22;100.00;96470.59;6187276;28;96677;-56
2024/02/11 06:17:52;;;;;;;;;32.20;30.00;;;;;13.22;100.00;96460.56;6182300;28;97238;-56
2024/02/11 06:20:56;;;;;;;;;37.25;31.00;;;;;13.27;100.00;96473.22;6170249;28;96829;-56
2024/02/11 06:24:01;;;;;;;;;32.80;29.00;;;;;13.32;100.00;96473.13;6169546;28;96524;-56
2024/02/11 06:27:05;;;;;;;;;31.75;29.00;;;;;13.36;100.00;96474.13;6187756;28;96407;-56
2024/02/11 06:30:12;;;;;;;;;32.80;28.40;;;;;13.39;100.00;96484.34;6187563;28;96413;-56
2024/02/11 06:33:16;;;;;;;;;31.50;28.50;;;;;13.42;100.00;96492.69;6188185;28;96323;-56
2024/02/11 06:36:20;;;;;;;;;29.00;28.20;;;;;13.46;100.00;96492.91;6187526;28;96825;-56
2024/02/11 06:39:24;;;;;;;;;30.00;27.00;;;;;13.52;100.00;96496.31;6187399;28;96847;-56
2024/02/11 06:42:30;;;;;;;;;30.80;29.00;;;;;13.48;100.00;96492.59;6187457;28;96284;-56
2024/02/11 06:45:35;;;;;;;;;29.80;26.60;;;;;13.34;100.00;96493.34;6188014;28;96669;-56
2024/02/11 06:48:38;;;;;;;;;29.80;27.00;;;;;13.25;100.00;96483.53;6196935;28;97024;-56
2024/02/11 06:51:42;;;;;;;;;31.50;28.50;;;;;13.41;100.00;96498.41;6178645;28;96979;-56
2024/02/11 06:54:47;;;;;;;;;33.60;30.00;;;;;13.49;100.00;96499.63;6197553;28;96945;-56
2024/02/11 06:57:51;;;;;;;;;31.40;29.00;;;;;13.58;100.00;96500.53;6194833;28;97789;-56
2024/02/11 07:00:56;;;;;;;;;32.25;29.25;;;;;13.65;100.00;96490.91;6194912;28;96471;-56
2024/02/11 07:04:00;;;;;;;;;33.40;29.40;;;;;13.73;100.00;96490.22;6194414;28;97991;-56
2024/02/11 07:07:04;;;;;;;;;29.00;28.00;;;;;13.77;100.00;96488.53;6193607;28;97280;-56
2024/02/11 07:10:08;;;;;;;;;32.25;30.00;;;;;13.83;100.00;96487.31;6190302;28;96462;-56
2024/02/11 07:13:12;;;;;;;;;31.20;25.00;;;;;13.88;100.00;96484.50;6194511;28;96399;-56
2024/02/11 07:16:17;;;;;;;;;31.50;30.00;;;;;13.93;100.00;96485.53;6192027;28;97054;-56
2024/02/11 07:19:24;;;;;;;;;27.00;24.20;;;;;13.97;100.00;96483.81;6193482;28;96845;-56
2024/02/11 07:22:27;;;;;;;;;26.00;24.00;;;;;13.79;100.00;96493.63;6191463;28;96414;-56
2024/02/11 07:25:31;;;;;;;;;30.75;28.00;;;;;14.05;100.00;96477.69;6191689;28;96839;-56
2024/02/11 07:28:34;;;;;;;;;32.80;29.80;;;;;14.09;100.00;96489.50;6188705;28;97709;-57
2024/02/11 07:31:39;;;;;;;;;27.75;26.50;;;;;14.12;100.00;96497.06;6188365;28;99800;-56
2024/02/11 07:34:43;;;;;;;;;28.40;27.40;;;;;14.15;100.00;96497.25;6185662;28;97744;-56
2024/02/11 07:37:46;;;;;;;;;28.80;25.00;;;;;14.19;100.00;96484.69;6191386;28;96383;-56
2024/02/11 07:40:50;;;;;;;;;27.00;27.00;;;;;14.14;100.00;96475.88;6186182;28;96790;-56
2024/02/11 07:43:54;;;;;;;;;25.00;22.00;;;;;14.31;100.00;96495.03;6194318;28;96370;-56
2024/02/11 07:46:59;;;;;;;;;23.60;22.00;;;;;14.37;100.00;96490.34;6196031;28;96546;-56
2024/02/11 07:50:03;;;;;;;;;28.00;25.50;;;;;14.42;100.00;96492.91;6199192;28;96482;-57
2024/02/11 07:53:07;;;;;;;;;25.40;25.00;;;;;14.46;100.00;96494.75;6191730;28;96354;-56
2024/02/11 07:56:15;;;;;;;;;31.50;28.00;;;;;14.50;100.00;96494.91;6193702;28;96410;-55
2024/02/11 07:59:18;;;;;;;;;25.20;22.60;;;;;14.52;100.00;96493.50;6189708;28;96731;-55
2024/02/11 08:02:23;;;;;;;;;29.00;26.00;;;;;14.49;100.00;96496.81;6191121;28;97402;-54
2024/02/11 08:05:26;;;;;;;;;26.00;24.40;;;;;14.46;100.00;96489.31;6194293;28;96548;-55
2024/02/11 08:08:30;;;;;;;;;23.00;21.75;;;;;14.45;100.00;96489.59;6190398;28;98011;-54
2024/02/11 08:11:33;;;;;;;;;22.75;21.75;;;;;14.42;100.00;96491.00;6187948;28;96436;-54
2024/02/11 08:14:37;;;;;;;;;25.00;23.00;;;;;14.44;100.00;96483.38;6196103;28;96956;-54
2024/02/11 08:17:43;;;;;;;;;27.00;24.25;;;;;14.46;100.00;96475.75;6194272;28;96404;-54
2024/02/11 08:20:46;;;;;;;;;28.40;25.80;;;;;14.50;100.00;96474.03;6191500;28;97004;-54
2024/02/11 08:23:49;;;;;;;;;26.60;24.60;;;;;14.52;100.00;96474.53;6177726;28;97380;-54
2024/02/11 08:26:52;;;;;;;;;24.00;22.50;;;;;14.54;100.00;96469.59;6194096;28;96396;-54
2024/02/11 08:29:56;;;;;;;;;23.60;21.60;;;;;14.55;100.00;96475.84;6189273;28;96967;-54
2024/02/11 08:33:00;;;;;;;;;24.00;21.25;;;;;14.44;100.00;96448.16;6183710;28;96381;-54
2024/02/11 08:36:04;;;;;;;;;18.40;17.60;;;;;14.65;100.00;96473.69;6181219;28;97230;-54
2024/02/11 08:39:10;;;;;;;;;24.00;20.00;;;;;14.69;100.00;96466.56;6185416;28;96368;-54
2024/02/11 08:42:14;;;;;;;;;22.60;19.60;;;;;14.67;100.00;96476.09;6190128;28;96387;-54
2024/02/11 08:45:17;;;;;;;;;25.33;21.00;;;;;14.68;100.00;96473.06;6197163;28;96520;-53
2024/02/11 08:48:22;;;;;;;;;23.60;20.00;;;;;14.73;100.00;96481.09;6193687;28;96374;-54
2024/02/11 08:51:25;;;;;;;;;21.75;19.75;;;;;14.77;100.00;96483.19;6194746;28;96951;-54
2024/02/11 08:54:29;;;;;;;;;28.80;23.80;;;;;14.73;100.00;96491.94;6189650;28;96883;-54
2024/02/11 08:57:32;;;;;;;;;25.00;23.00;;;;;14.63;100.00;96489.47;6191209;28;97012;-55
2024/02/11 09:00:35;;;;;;;;;20.00;19.00;;;;;14.47;100.00;96477.34;6186056;28;96339;-55
2024/02/11 09:03:46;;;;;;;;;20.00;19.00;;;;;14.62;100.00;96489.75;6186410;28;96578;-54
2024/02/11 09:06:51;;;;;;;;;17.00;15.00;;;;;14.54;100.00;96479.66;6194756;28;97942;-56
2024/02/11 09:09:54;;;;;;;;;15.00;14.00;;;;;14.59;100.00;96476.81;6202153;28;96265;-56
2024/02/11 09:12:58;;;;;;;;;16.80;15.00;;;;;14.68;100.00;96475.78;6207368;28;97135;-56
2024/02/11 09:16:01;;;;;;;;;18.80;14.40;;;;;14.82;100.00;96475.72;6200482;28;96687;-56
2024/02/11 09:19:05;;;;;;;;;17.00;15.00;;;;;14.95;100.00;96480.31;6201567;28;97163;-56
2024/02/11 09:22:12;;;;;;;;;14.60;13.00;;;;;15.08;100.00;96484.06;6196493;28;96394;-56
2024/02/11 09:25:15;;;;;;;;;15.00;14.00;;;;;15.15;100.00;96471.66;6201952;28;97096;-56
2024/02/11 09:28:20;;;;;;;;;16.00;15.00;;;;;15.30;100.00;96477.81;6198142;28;96696;-56
2024/02/11 09:31:23;;;;;;;;;10.75;9.75;;;;;15.38;100.00;96477.88;6201609;28;96956;-56
2024/02/11 09:34:27;;;;;;;;;12.80;12.00;;;;;15.49;100.00;96476.50;6194782;28;96450;-56
2024/02/11 09:37:32;;;;;;;;;13.00;13.00;;;;;15.61;100.00;96481.38;6177670;28;96535;-56
2024/02/11 09:40:35;;;;;;;;;13.50;12.00;;;;;15.69;100.00;96464.31;6195049;28;96610;-56
2024/02/11 09:43:40;;;;;;;;;14.00;13.00;;;;;15.81;100.00;96469.19;6195166;28;96475;-56
2024/02/11 09:46:44;;;;;;;;;12.60;12.00;;;;;15.87;100.00;96478.78;6193985;28;96964;-56
2024/02/11 09:49:51;;;;;;;;;15.20;14.20;;;;;15.94;100.00;96479.94;6203823;28;96113;-56
2024/02/11 09:52:55;;;;;;;;;14.50;13.00;;;;;15.90;100.00;96478.97;6197845;28;96605;-56
2024/02/11 09:55:58;;;;;;;;;15.00;14.20;;;;;15.71;100.00;96466.72;6199111;28;96738;-56
2024/02/11 09:59:02;;;;;;;;;14.40;12.60;;;;;15.40;100.00;96472.13;6190169;28;96681;-56
2024/02/11 10:02:15;;;;;;;;;15.00;12.20;;;;;15.31;100.00;96469.38;6194941;28;97411;-56
2024/02/11 10:05:21;;;;;;;;;10.20;9.60;;;;;15.29;100.00;96477.03;6194097;28;96277;-56
2024/02/11 10:08:25;;;;;;;;;13.00;11.00;;;;;15.15;100.00;96466.22;6196762;28;96325;-56
2024/02/11 10:11:29;;;;;;;;;6.00;5.75;;;;;15.06;100.00;96480.84;6175737;28;96448;-56
2024/02/11 10:14:34;;;;;;;;;8.00;7.00;;;;;15.19;100.00;96471.88;6194226;28;96365;-56
2024/02/11 10:17:37;;;;;;;;;6.60;6.00;;;;;15.32;100.00;96473.69;6192060;28;96267;-54
2024/02/11 10:20:42;;;;;;;;;6.00;5.00;;;;;15.36;100.00;96479.28;6188631;28;96716;-54
2024/02/11 10:23:47;;;;;;;;;6.00;6.00;;;;;15.32;100.00;96472.88;6185839;28;97309;-54
2024/02/11 10:26:50;;;;;;;;;7.00;6.40;;;;;15.58;100.00;96471.97;6192942;28;97361;-54
2024/02/11 10:29:53;;;;;;;;;8.40;7.40;;;;;15.76;100.00;96463.88;6190670;28;97882;-55
2024/02/11 10:32:58;;;;;;;;;7.40;7.00;;;;;15.86;100.00;96458.97;6191734;28;96490;-55
2024/02/11 10:36:03;;;;;;;;;7.00;7.00;;;;;15.86;100.00;96452.72;6182831;28;96644;-55
2024/02/11 10:39:06;;;;;;;;;7.00;7.00;;;;;15.90;100.00;96454.50;6184332;28;96352;-55
2024/02/11 10:42:10;;;;;;;;;7.00;7.00;;;;;15.97;100.00;96456.78;6187586;28;96424;-54
2024/02/11 10:45:14;;;;;;;;;8.00;8.00;;;;;16.09;100.00;96443.38;6184564;28;97110;-56
2024/02/11 10:48:19;;;;;;;;;8.00;8.00;;;;;16.12;100.00;96440.03;6187649;28;96206;-55
2024/02/11 10:51:29;;;;;;;;;6.00;6.00;;;;;16.18;100.00;96436.03;6189309;28;96952;-54
2024/02/11 10:54:41;;;;;;;;;6.00;6.00;;;;;16.28;100.00;96437.66;6183344;28;96373;-54
2024/02/11 10:57:49;;;;;;;;;7.60;7.00;;;;;16.34;100.00;96436.38;6184680;28;96712;-54
2024/02/11 11:00:53;;;;;;;;;9.00;7.67;;;;;16.39;100.00;96428.06;6187065;28;96423;-54
2024/02/11 11:04:03;;;;;;;;;8.00;7.40;;;;;16.36;100.00;96420.56;6190013;28;97354;-54
2024/02/11 11:07:12;;;;;;;;;5.00;5.00;;;;;16.22;100.00;96428.06;6188615;28;96642;-54
2024/02/11 11:10:16;;;;;;;;;7.00;7.00;;;;;16.23;100.00;96421.47;6188088;28;96621;-54
2024/02/11 11:13:24;;;;;;;;;5.00;4.00;;;;;16.27;100.00;96419.75;6182477;28;96368;-56
2024/02/11 11:16:29;;;;;;;;;7.00;6.40;;;;;16.27;100.00;96423.25;6200667;28;96320;-56
2024/02/11 11:19:33;;;;;;;;;7.00;6.20;;;;;16.13;100.00;96419.88;6185424;28;96464;-56
2024/02/11 11:22:38;;;;;;;;;5.60;5.60;;;;;16.10;100.00;96419.72;6186502;28;96407;-56
2024/02/11 11:25:42;;;;;;;;;6.00;5.00;;;;;15.99;100.00;96422.72;6186766;28;97015;-55
2024/02/11 11:28:46;;;;;;;;;6.00;5.75;;;;;15.90;100.00;96426.53;6181335;28;96545;-54
2024/02/11 11:31:50;;;;;;;;;5.40;5.40;;;;;15.87;100.00;96422.53;6191159;28;97233;-54
2024/02/11 11:34:53;;;;;;;;;7.00;6.80;;;;;15.78;100.00;96419.00;6195301;28;96625;-55
2024/02/11 11:38:01;;;;;;;;;5.67;5.00;;;;;15.70;100.00;96399.94;6190728;28;97831;-54
2024/02/11 11:41:06;;;;;;;;;7.40;6.00;;;;;15.86;100.00;96411.97;6187547;28;96643;-55
2024/02/11 11:44:10;;;;;;;;;7.00;7.00;;;;;16.02;100.00;96413.97;6185627;28;96457;-56
2024/02/11 11:47:14;;;;;;;;;7.00;7.00;;;;;16.01;100.00;96419.69;6187142;28;96704;-55
2024/02/11 11:50:19;;;;;;;;;7.00;6.60;;;;;16.10;100.00;96414.28;6192552;28;96455;-54
2024/02/11 11:53:24;;;;;;;;;6.00;6.00;;;;;16.25;100.00;96417.34;6189532;28;96296;-55
2024/02/11 11:56:28;;;;;;;;;7.60;7.60;;;;;16.40;100.00;96407.94;6189803;28;96914;-54
2024/02/11 11:59:31;;;;;;;;;7.00;6.00;;;;;16.56;100.00;96405.53;6190909;28;97310;-54
2024/02/11 12:02:35;;;;;;;;;7.25;6.75;;;;;16.65;100.00;96406.38;6196686;28;97468;-54
2024/02/11 12:05:38;;;;;;;;;7.60;7.00;;;;;16.75;100.00;96414.19;6199605;28;97568;-54
2024/02/11 12:08:43;;;;;;;;;8.00;8.00;;;;;16.80;100.00;96406.69;6191301;28;96348;-54
2024/02/11 12:11:48;;;;;;;;;11.40;8.60;;;;;16.85;100.00;96406.50;6185658;28;96568;-55
2024/02/11 12:14:52;;;;;;;;;8.00;7.40;;;;;16.88;100.00;96400.41;6189545;28;96184;-55
2024/02/11 12:17:59;;;;;;;;;10.40;8.00;;;;;16.89;100.00;96406.66;6192415;28;96437;-55
2024/02/11 12:21:03;;;;;;;;;8.50;7.50;;;;;16.81;100.00;96399.31;6191792;28;96456;-54
2024/02/11 12:24:08;;;;;;;;;7.00;6.00;;;;;16.84;100.00;96396.75;6190414;28;96851;-55
2024/02/11 12:27:14;;;;;;;;;7.80;7.00;;;;;16.78;100.00;96398.03;6189552;28;97352;-55
2024/02/11 12:30:23;;;;;;;;;8.80;7.20;;;;;16.69;100.00;96394.50;6183776;28;98007;-55
2024/02/11 12:33:27;;;;;;;;;9.00;8.25;;;;;16.71;100.00;96394.22;6186243;28;96460;-55
2024/02/11 12:36:30;;;;;;;;;8.00;7.00;;;;;16.73;100.00;96383.78;6185234;28;96885;-55
2024/02/11 12:39:36;;;;;;;;;8.60;8.00;;;;;16.66;100.00;96381.56;6189838;28;97008;-54
2024/02/11 12:42:39;;;;;;;;;8.00;7.00;;;;;16.65;100.00;96377.25;6191014;28;96774;-54
2024/02/11 12:45:42;;;;;;;;;7.00;7.00;;;;;16.63;100.00;96382.19;6191516;28;97964;-55
2024/02/11 12:48:47;;;;;;;;;7.80;6.80;;;;;16.65;100.00;96371.00;6195771;28;96513;-55
2024/02/11 12:51:50;;;;;;;;;10.00;9.00;;;;;16.67;100.00;96374.97;6195835;28;97377;-55
2024/02/11 12:54:55;;;;;;;;;9.80;9.00;;;;;16.60;100.00;96360.28;6194505;28;96656;-55
2024/02/11 12:57:58;;;;;;;;;11.40;10.00;;;;;16.70;100.00;96382.53;6192235;28;96923;-55
2024/02/11 13:01:02;;;;;;;;;8.60;8.60;;;;;16.70;100.00;96384.44;6191955;28;96489;-55
2024/02/11 13:04:06;;;;;;;;;10.00;9.60;;;;;16.67;100.00;96385.06;6192614;28;96275;-54
2024/02/11 13:07:09;;;;;;;;;9.20;9.00;;;;;16.66;100.00;96375.31;6190898;28;96532;-55
2024/02/11 13:10:14;;;;;;;;;10.00;10.00;;;;;16.63;100.00;96378.66;6197456;28;96352;-55
2024/02/11 13:13:17;;;;;;;;;10.20;9.00;;;;;16.56;100.00;96379.16;6197650;28;97018;-55
2024/02/11 13:16:21;;;;;;;;;9.00;9.00;;;;;16.51;100.00;96382.03;6190053;28;96378;-55
2024/02/11 13:19:24;;;;;;;;;10.00;10.00;;;;;16.48;100.00;96379.94;6190645;28;96367;-55
2024/02/11 13:22:28;;;;;;;;;9.00;8.00;;;;;16.35;100.00;96364.56;6202560;28;96279;-54
2024/02/11 13:25:32;;;;;;;;;10.60;9.60;;;;;16.40;100.00;96381.53;6196261;28;96588;-55
2024/02/11 13:28:37;;;;;;;;;9.40;8.00;;;;;16.37;100.00;96379.44;6185317;28;97208;-55
2024/02/11 13:31:41;;;;;;;;;9.00;8.75;;;;;16.36;100.00;96374.34;6188209;28;96279;-55
2024/02/11 13:34:46;;;;;;;;;10.00;9.00;;;;;16.35;100.00;96373.53;6181724;28;96985;-55
2024/02/11 13:37:50;;;;;;;;;11.40;11.00;;;;;16.19;100.00;96383.28;6187999;28;96297;-55
2024/02/11 13:40:55;;;;;;;;;11.40;10.00;;;;;16.22;100.00;96379.94;6185475;28;97273;-55
2024/02/11 13:43:58;;;;;;;;;9.00;9.00;;;;;16.12;100.00;96384.88;6186350;28;97497;-55
2024/02/11 13:47:01;;;;;;;;;9.00;9.00;;;;;16.08;100.00;96373.81;6169118;28;97102;-55
2024/02/11 13:50:08;;;;;;;;;9.00;8.25;;;;;16.02;100.00;96399.56;6187167;28;96249;-55
2024/02/11 13:53:12;;;;;;;;;10.80;10.20;;;;;16.02;100.00;96383.25;6188239;28;96893;-55
2024/02/11 13:56:16;;;;;;;;;9.00;8.00;;;;;15.92;100.00;96389.78;6185645;28;97468;-55
2024/02/11 13:59:20;;;;;;;;;11.00;10.00;;;;;15.96;100.00;96384.53;6187946;28;96515;-55
2024/02/11 14:02:23;;;;;;;;;11.00;10.00;;;;;15.94;100.00;96390.25;6185808;28;97437;-55